sensor_id;sensor_type;location;lat;lon;timestamp;pressure;altitude;pressure_sealevel;temperature;humidity
64827;BME280;51265;53.972;12.286;2023-04-10T00:00:25;101939.19;;;1.46;100.00
64827;BME280;51265;53.972;12.286;2023-04-10T00:02:51;101942.72;;;1.54;100.00
64827;BME280;51265;53.972;12.286;2023-04-10T00:05:17;101943.56;;;1.47;100.00
64827;BME280;51265;53.972;12.286;2023-04-10T00:07:44;101944.41;;;1.55;100.00
64827;BME280;51265;53.972;12.286;2023-04-10T00:10:11;101940.03;;;1.60;100.00
64827;BME280;51265;53.972;12.286;2023-04-10T00:12:37;101940.22;;;1.59;100.00
64827;BME280;51265;53.972;12.286;2023-04-10T00:15:04;101943.19;;;1.64;100.00
64827;BME280;51265;53.972;12.286;2023-04-10T00:17:31;101945.47;;;1.67;100.00
64827;BME280;51265;53.972;12.286;2023-04-10T00:19:57;101941.91;;;1.66;100.00
64827;BME280;51265;53.972;12.286;2023-04-10T00:22:24;101938.56;;;1.71;100.00
64827;BME280;51265;53.972;12.286;2023-04-10T00:24:50;101935.22;;;1.62;100.00
64827;BME280;51265;53.972;12.286;2023-04-10T00:27:17;101938.56;;;1.71;100.00
64827;BME280;51265;53.972;12.286;2023-04-10T00:29:43;101936.69;;;1.65;100.00
64827;BME280;51265;53.972;12.286;2023-04-10T00:32:10;101935.03;;;1.64;100.00
64827;BME280;51265;53.972;12.286;2023-04-10T00:34:36;101938.56;;;1.58;100.00
64827;BME280;51265;53.972;12.286;2023-04-10T00:37:03;101929.78;;;1.49;100.00
64827;BME280;51265;53.972;12.286;2023-04-10T00:39:29;101926.44;;;1.40;100.00
64827;BME280;51265;53.972;12.286;2023-04-10T00:41:55;101917.66;;;1.32;100.00
64827;BME280;51265;53.972;12.286;2023-04-10T00:44:23;101927.06;;;1.42;100.00
64827;BME280;51265;53.972;12.286;2023-04-10T00:46:49;101921.44;;;1.44;100.00
64827;BME280;51265;53.972;12.286;2023-04-10T00:49:16;101918.50;;;1.45;100.00
64827;BME280;51265;53.972;12.286;2023-04-10T00:51:43;101915.78;;;1.45;100.00
64827;BME280;51265;53.972;12.286;2023-04-10T00:54:09;101925.81;;;1.38;100.00
64827;BME280;51265;53.972;12.286;2023-04-10T00:56:37;101921.66;;;1.42;100.00
64827;BME280;51265;53.972;12.286;2023-04-10T00:59:04;101926.44;;;1.47;100.00
64827;BME280;51265;53.972;12.286;2023-04-10T01:01:30;101923.31;;;1.43;100.00
64827;BME280;51265;53.972;12.286;2023-04-10T01:03:57;101909.91;;;1.42;100.00
64827;BME280;51265;53.972;12.286;2023-04-10T01:09:44;101916.59;;;1.26;100.00
64827;BME280;51265;53.972;12.286;2023-04-10T01:15:11;101927.66;;;1.18;100.00
64827;BME280;51265;53.972;12.286;2023-04-10T01:20:28;101920.31;;;1.12;100.00
64827;BME280;51265;53.972;12.286;2023-04-10T01:23:25;101927.84;;;1.23;100.00
64827;BME280;51265;53.972;12.286;2023-04-10T01:26:00;101923.47;;;1.22;100.00
64827;BME280;51265;53.972;12.286;2023-04-10T01:31:07;101933.50;;;1.28;100.00
64827;BME280;51265;53.972;12.286;2023-04-10T01:33:42;101936.88;;;1.30;100.00
64827;BME280;51265;53.972;12.286;2023-04-10T01:36:20;101940.19;;;1.32;100.00
64827;BME280;51265;53.972;12.286;2023-04-10T01:38:49;101945.63;;;1.32;100.00
64827;BME280;51265;53.972;12.286;2023-04-10T01:41:18;101939.78;;;1.35;100.00
64827;BME280;51265;53.972;12.286;2023-04-10T01:43:48;101943.94;;;1.38;100.00
64827;BME280;51265;53.972;12.286;2023-04-10T01:46:18;101951.91;;;1.39;100.00
64827;BME280;51265;53.972;12.286;2023-04-10T01:48:47;101937.72;;;1.44;100.00
64827;BME280;51265;53.972;12.286;2023-04-10T01:51:15;101945.66;;;1.45;100.00
64827;BME280;51265;53.972;12.286;2023-04-10T01:53:43;101940.47;;;1.51;100.00
64827;BME280;51265;53.972;12.286;2023-04-10T01:56:12;101936.47;;;1.46;100.00
64827;BME280;51265;53.972;12.286;2023-04-10T01:58:43;101931.88;;;1.54;100.00
64827;BME280;51265;53.972;12.286;2023-04-10T02:01:10;101928.09;;;1.55;100.00
64827;BME280;51265;53.972;12.286;2023-04-10T02:03:36;101930.22;;;1.59;100.00
64827;BME280;51265;53.972;12.286;2023-04-10T02:09:22;101919.75;;;1.36;100.00
64827;BME280;51265;53.972;12.286;2023-04-10T02:12:01;101910.94;;;1.28;100.00
64827;BME280;51265;53.972;12.286;2023-04-10T02:14:31;101911.34;;;1.18;100.00
64827;BME280;51265;53.972;12.286;2023-04-10T02:17:01;101912.81;;;1.14;100.00
64827;BME280;51265;53.972;12.286;2023-04-10T02:19:30;101909.88;;;1.09;100.00
64827;BME280;51265;53.972;12.286;2023-04-10T02:21:57;101912.59;;;1.09;100.00
64827;BME280;51265;53.972;12.286;2023-04-10T02:24:24;101916.50;;;0.99;100.00
64827;BME280;51265;53.972;12.286;2023-04-10T02:26:52;101915.66;;;0.92;100.00
64827;BME280;51265;53.972;12.286;2023-04-10T02:29:18;101923.38;;;0.95;100.00
64827;BME280;51265;53.972;12.286;2023-04-10T02:31:45;101922.81;;;1.07;100.00
64827;BME280;51265;53.972;12.286;2023-04-10T02:34:13;101922.41;;;1.10;100.00
64827;BME280;51265;53.972;12.286;2023-04-10T02:36:40;101926.78;;;1.11;100.00
64827;BME280;51265;53.972;12.286;2023-04-10T02:39:08;101914.25;;;1.16;100.00
64827;BME280;51265;53.972;12.286;2023-04-10T02:41:43;101920.53;;;1.17;100.00
64827;BME280;51265;53.972;12.286;2023-04-10T02:44:12;101920.94;;;1.20;100.00
64827;BME280;51265;53.972;12.286;2023-04-10T02:46:38;101924.31;;;1.29;100.00
64827;BME280;51265;53.972;12.286;2023-04-10T02:49:05;101923.69;;;1.27;100.00
64827;BME280;51265;53.972;12.286;2023-04-10T02:51:35;101920.97;;;1.27;100.00
64827;BME280;51265;53.972;12.286;2023-04-10T02:54:02;101917.44;;;1.27;100.00
64827;BME280;51265;53.972;12.286;2023-04-10T02:56:34;101917.59;;;1.12;100.00
64827;BME280;51265;53.972;12.286;2023-04-10T02:59:02;101919.25;;;1.13;100.00
64827;BME280;51265;53.972;12.286;2023-04-10T03:01:30;101915.97;;;1.17;100.00
64827;BME280;51265;53.972;12.286;2023-04-10T03:03:57;101915.72;;;1.12;100.00
64827;BME280;51265;53.972;12.286;2023-04-10T03:06:27;101907.31;;;0.94;100.00
64827;BME280;51265;53.972;12.286;2023-04-10T03:08:56;101909.38;;;0.85;100.00
64827;BME280;51265;53.972;12.286;2023-04-10T03:11:22;101911.25;;;0.85;100.00
64827;BME280;51265;53.972;12.286;2023-04-10T03:13:49;101904.13;;;0.77;100.00
64827;BME280;51265;53.972;12.286;2023-04-10T03:16:15;101901.16;;;0.65;100.00
64827;BME280;51265;53.972;12.286;2023-04-10T03:18:45;101903.19;;;0.57;100.00
64827;BME280;51265;53.972;12.286;2023-04-10T03:21:12;101896.50;;;0.53;100.00
64827;BME280;51265;53.972;12.286;2023-04-10T03:23:38;101899.00;;;0.54;100.00
64827;BME280;51265;53.972;12.286;2023-04-10T03:26:05;101898.16;;;0.54;100.00
64827;BME280;51265;53.972;12.286;2023-04-10T03:28:36;101886.91;;;0.50;100.00
64827;BME280;51265;53.972;12.286;2023-04-10T03:31:04;101874.75;;;0.39;100.00
64827;BME280;51265;53.972;12.286;2023-04-10T03:33:34;101871.56;;;0.29;100.00
64827;BME280;51265;53.972;12.286;2023-04-10T03:36:00;101877.19;;;0.28;100.00
64827;BME280;51265;53.972;12.286;2023-04-10T03:38:27;101879.69;;;0.22;100.00
64827;BME280;51265;53.972;12.286;2023-04-10T03:40:53;101876.91;;;0.16;100.00
64827;BME280;51265;53.972;12.286;2023-04-10T03:43:23;101881.72;;;0.14;100.00
64827;BME280;51265;53.972;12.286;2023-04-10T03:45:51;101878.16;;;0.13;100.00
64827;BME280;51265;53.972;12.286;2023-04-10T03:48:17;101887.75;;;0.16;100.00
64827;BME280;51265;53.972;12.286;2023-04-10T03:50:46;101891.34;;;0.23;100.00
64827;BME280;51265;53.972;12.286;2023-04-10T03:53:12;101879.28;;;0.26;100.00
64827;BME280;51265;53.972;12.286;2023-04-10T03:55:39;101877.81;;;0.23;100.00
64827;BME280;51265;53.972;12.286;2023-04-10T03:58:06;101875.09;;;0.23;100.00
64827;BME280;51265;53.972;12.286;2023-04-10T04:00:34;101885.94;;;0.23;100.00
64827;BME280;51265;53.972;12.286;2023-04-10T04:03:10;101878.88;;;0.29;100.00
64827;BME280;51265;53.972;12.286;2023-04-10T04:05:55;101872.63;;;0.28;100.00
64827;BME280;51265;53.972;12.286;2023-04-10T04:08:36;101879.69;;;0.29;100.00
64827;BME280;51265;53.972;12.286;2023-04-10T04:11:15;101876.19;;;0.35;100.00
64827;BME280;51265;53.972;12.286;2023-04-10T04:13:54;101879.97;;;0.34;100.00
64827;BME280;51265;53.972;12.286;2023-04-10T04:16:39;101879.78;;;0.42;100.00
64827;BME280;51265;53.972;12.286;2023-04-10T04:19:38;101876.03;;;0.43;100.00
64827;BME280;51265;53.972;12.286;2023-04-10T04:22:24;101881.91;;;0.54;100.00
64827;BME280;51265;53.972;12.286;2023-04-10T04:25:09;101870.22;;;0.46;100.00
64827;BME280;51265;53.972;12.286;2023-04-10T04:27:55;101867.25;;;0.41;100.00
64827;BME280;51265;53.972;12.286;2023-04-10T04:30:44;101867.25;;;0.41;100.00
64827;BME280;51265;53.972;12.286;2023-04-10T04:33:20;101868.06;;;0.35;100.00
64827;BME280;51265;53.972;12.286;2023-04-10T04:35:49;101865.75;;;0.32;100.00
64827;BME280;51265;53.972;12.286;2023-04-10T04:38:30;101870.19;;;0.40;100.00
64827;BME280;51265;53.972;12.286;2023-04-10T04:41:09;101864.31;;;0.36;100.00
64827;BME280;51265;53.972;12.286;2023-04-10T04:43:38;101866.41;;;0.34;100.00
64827;BME280;51265;53.972;12.286;2023-04-10T04:46:24;101869.75;;;0.36;100.00
64827;BME280;51265;53.972;12.286;2023-04-10T04:49:10;101874.00;;;0.52;100.00
64827;BME280;51265;53.972;12.286;2023-04-10T04:51:47;101873.81;;;0.60;100.00
64827;BME280;51265;53.972;12.286;2023-04-10T04:54:26;101867.56;;;0.60;100.00
64827;BME280;51265;53.972;12.286;2023-04-10T04:57:28;101867.34;;;0.55;100.00
64827;BME280;51265;53.972;12.286;2023-04-10T05:00:13;101860.22;;;0.54;100.00
64827;BME280;51265;53.972;12.286;2023-04-10T05:03:03;101860.22;;;0.54;100.00
64827;BME280;51265;53.972;12.286;2023-04-10T05:05:51;101868.59;;;0.59;100.00
64827;BME280;51265;53.972;12.286;2023-04-10T05:08:43;101871.06;;;0.54;100.00
64827;BME280;51265;53.972;12.286;2023-04-10T05:11:42;101870.44;;;0.52;100.00
64827;BME280;51265;53.972;12.286;2023-04-10T05:14:19;101856.88;;;0.52;100.00
64827;BME280;51265;53.972;12.286;2023-04-10T05:17:13;101861.28;;;0.53;100.00
64827;BME280;51265;53.972;12.286;2023-04-10T05:19:49;101856.88;;;0.52;100.00
64827;BME280;51265;53.972;12.286;2023-04-10T05:22:34;101862.31;;;0.58;100.00
64827;BME280;51265;53.972;12.286;2023-04-10T05:25:15;101864.03;;;0.66;100.00
64827;BME280;51265;53.972;12.286;2023-04-10T05:28:04;101865.94;;;0.79;100.00
64827;BME280;51265;53.972;12.286;2023-04-10T05:30:59;101874.13;;;0.85;100.00
64827;BME280;51265;53.972;12.286;2023-04-10T05:33:38;101875.59;;;0.94;100.00
64827;BME280;51265;53.972;12.286;2023-04-10T05:36:13;101870.38;;;0.99;100.00
64827;BME280;51265;53.972;12.286;2023-04-10T05:39:10;101870.84;;;1.10;100.00
64827;BME280;51265;53.972;12.286;2023-04-10T05:42:05;101861.06;;;1.22;100.00
64827;BME280;51265;53.972;12.286;2023-04-10T05:44:45;101877.16;;;1.30;100.00
64827;BME280;51265;53.972;12.286;2023-04-10T05:47:30;101874.22;;;1.38;100.00
64827;BME280;51265;53.972;12.286;2023-04-10T05:50:10;101878.41;;;1.47;100.00
64827;BME280;51265;53.972;12.286;2023-04-10T05:52:55;101885.09;;;1.52;100.00
64827;BME280;51265;53.972;12.286;2023-04-10T05:55:40;101881.31;;;1.66;100.00
64827;BME280;51265;53.972;12.286;2023-04-10T05:58:19;101877.78;;;1.72;100.00
64827;BME280;51265;53.972;12.286;2023-04-10T06:00:51;101874.22;;;1.85;100.00
64827;BME280;51265;53.972;12.286;2023-04-10T06:03:44;101867.53;;;1.94;100.00
64827;BME280;51265;53.972;12.286;2023-04-10T06:06:11;101869.19;;;2.02;100.00
64827;BME280;51265;53.972;12.286;2023-04-10T06:08:38;101870.63;;;2.11;100.00
64827;BME280;51265;53.972;12.286;2023-04-10T06:11:05;101866.63;;;2.20;100.00
64827;BME280;51265;53.972;12.286;2023-04-10T06:13:32;101855.13;;;2.31;100.00
64827;BME280;51265;53.972;12.286;2023-04-10T06:15:59;101853.81;;;2.40;100.00
64827;BME280;51265;53.972;12.286;2023-04-10T06:18:27;101858.59;;;2.52;100.00
64827;BME280;51265;53.972;12.286;2023-04-10T06:20:53;101858.72;;;2.70;100.00
64827;BME280;51265;53.972;12.286;2023-04-10T06:23:21;101863.09;;;2.71;100.00
64827;BME280;51265;53.972;12.286;2023-04-10T06:25:49;101862.59;;;2.87;100.00
64827;BME280;51265;53.972;12.286;2023-04-10T06:28:15;101858.41;;;2.91;100.00
64827;BME280;51265;53.972;12.286;2023-04-10T06:30:45;101860.19;;;3.11;100.00
64827;BME280;51265;53.972;12.286;2023-04-10T06:33:12;101859.03;;;3.25;100.00
64827;BME280;51265;53.972;12.286;2023-04-10T06:35:42;101848.81;;;3.45;100.00
64827;BME280;51265;53.972;12.286;2023-04-10T06:38:08;101852.22;;;3.66;100.00
64827;BME280;51265;53.972;12.286;2023-04-10T06:40:36;101853.59;;;3.75;100.00
64827;BME280;51265;53.972;12.286;2023-04-10T06:43:03;101853.47;;;3.88;100.00
64827;BME280;51265;53.972;12.286;2023-04-10T06:45:50;101839.25;;;3.86;100.00
64827;BME280;51265;53.972;12.286;2023-04-10T06:48:17;101841.09;;;4.11;100.00
64827;BME280;51265;53.972;12.286;2023-04-10T06:50:43;101844.38;;;4.19;100.00
64827;BME280;51265;53.972;12.286;2023-04-10T06:53:09;101847.03;;;4.44;100.00
64827;BME280;51265;53.972;12.286;2023-04-10T06:55:36;101847.84;;;4.45;100.00
64827;BME280;51265;53.972;12.286;2023-04-10T06:58:02;101840.94;;;4.61;100.00
64827;BME280;51265;53.972;12.286;2023-04-10T07:00:29;101840.06;;;4.79;100.00
64827;BME280;51265;53.972;12.286;2023-04-10T07:02:55;101834.47;;;5.04;100.00
64827;BME280;51265;53.972;12.286;2023-04-10T07:05:22;101834.06;;;5.30;100.00
64827;BME280;51265;53.972;12.286;2023-04-10T07:07:49;101827.44;;;5.49;100.00
64827;BME280;51265;53.972;12.286;2023-04-10T07:10:16;101837.56;;;5.84;100.00
64827;BME280;51265;53.972;12.286;2023-04-10T07:12:42;101831.78;;;6.16;100.00
64827;BME280;51265;53.972;12.286;2023-04-10T07:15:09;101818.63;;;6.41;100.00
64827;BME280;51265;53.972;12.286;2023-04-10T07:17:37;101824.53;;;6.62;100.00
64827;BME280;51265;53.972;12.286;2023-04-10T07:20:04;101814.75;;;6.94;100.00
64827;BME280;51265;53.972;12.286;2023-04-10T07:22:31;101808.56;;;7.16;100.00
64827;BME280;51265;53.972;12.286;2023-04-10T07:24:57;101794.97;;;7.38;100.00
64827;BME280;51265;53.972;12.286;2023-04-10T07:27:24;101783.31;;;7.47;100.00
64827;BME280;51265;53.972;12.286;2023-04-10T07:29:54;101781.63;;;7.80;100.00
64827;BME280;51265;53.972;12.286;2023-04-10T07:32:22;101770.94;;;8.01;100.00
64827;BME280;51265;53.972;12.286;2023-04-10T07:34:48;101757.44;;;8.16;100.00
64827;BME280;51265;53.972;12.286;2023-04-10T07:37:15;101736.00;;;8.13;100.00
64827;BME280;51265;53.972;12.286;2023-04-10T07:39:43;101735.53;;;8.43;100.00
64827;BME280;51265;53.972;12.286;2023-04-10T07:42:10;101718.25;;;8.42;100.00
64827;BME280;51265;53.972;12.286;2023-04-10T07:44:36;101726.50;;;8.69;100.00
64827;BME280;51265;53.972;12.286;2023-04-10T07:47:04;101714.19;;;8.77;100.00
64827;BME280;51265;53.972;12.286;2023-04-10T07:49:30;101709.94;;;8.91;100.00
64827;BME280;51265;53.972;12.286;2023-04-10T07:51:57;101702.41;;;9.09;100.00
64827;BME280;51265;53.972;12.286;2023-04-10T07:54:23;101683.78;;;9.16;100.00
64827;BME280;51265;53.972;12.286;2023-04-10T07:56:51;101682.81;;;9.32;100.00
64827;BME280;51265;53.972;12.286;2023-04-10T07:59:18;101668.81;;;9.44;100.00
64827;BME280;51265;53.972;12.286;2023-04-10T08:01:45;101649.56;;;9.44;100.00
64827;BME280;51265;53.972;12.286;2023-04-10T08:04:11;101667.34;;;9.73;100.00
64827;BME280;51265;53.972;12.286;2023-04-10T08:06:38;101653.88;;;9.77;100.00
64827;BME280;51265;53.972;12.286;2023-04-10T08:09:04;101645.63;;;9.82;100.00
64827;BME280;51265;53.972;12.286;2023-04-10T08:11:34;101656.72;;;9.97;100.00
64827;BME280;51265;53.972;12.286;2023-04-10T08:14:02;101659.53;;;10.23;100.00
64827;BME280;51265;53.972;12.286;2023-04-10T08:16:30;101658.00;;;10.73;100.00
64827;BME280;51265;53.972;12.286;2023-04-10T08:18:58;101643.13;;;11.10;100.00
64827;BME280;51265;53.972;12.286;2023-04-10T08:21:25;101609.75;;;11.11;100.00
64827;BME280;51265;53.972;12.286;2023-04-10T08:23:54;101601.69;;;11.45;100.00
64827;BME280;51265;53.972;12.286;2023-04-10T08:26:20;101591.13;;;11.63;100.00
64827;BME280;51265;53.972;12.286;2023-04-10T08:28:48;101582.81;;;11.73;100.00
64827;BME280;51265;53.972;12.286;2023-04-10T08:31:20;101574.22;;;11.85;100.00
64827;BME280;51265;53.972;12.286;2023-04-10T08:33:47;101571.63;;;12.04;99.69
64827;BME280;51265;53.972;12.286;2023-04-10T08:36:18;101554.59;;;12.31;98.69
64827;BME280;51265;53.972;12.286;2023-04-10T08:38:45;101538.59;;;12.28;97.90
64827;BME280;51265;53.972;12.286;2023-04-10T08:41:14;101523.34;;;12.35;96.36
64827;BME280;51265;53.972;12.286;2023-04-10T08:43:41;101506.19;;;12.38;95.57
64827;BME280;51265;53.972;12.286;2023-04-10T08:46:08;101492.00;;;12.16;96.19
64827;BME280;51265;53.972;12.286;2023-04-10T08:48:38;101489.38;;;12.01;96.59
64827;BME280;51265;53.972;12.286;2023-04-10T08:51:09;101502.31;;;12.05;97.14
64827;BME280;51265;53.972;12.286;2023-04-10T08:53:39;101498.59;;;12.20;97.33
64827;BME280;51265;53.972;12.286;2023-04-10T08:56:11;101495.81;;;12.25;97.10
64827;BME280;51265;53.972;12.286;2023-04-10T08:58:38;101492.47;;;12.28;97.21
64827;BME280;51265;53.972;12.286;2023-04-10T09:01:05;101483.41;;;12.52;95.04
64827;BME280;51265;53.972;12.286;2023-04-10T09:03:32;101455.84;;;12.70;93.76
64827;BME280;51265;53.972;12.286;2023-04-10T09:06:03;101435.94;;;12.74;92.55
64827;BME280;51265;53.972;12.286;2023-04-10T09:08:30;101433.94;;;12.79;92.07
64827;BME280;51265;53.972;12.286;2023-04-10T09:10:57;101426.66;;;12.88;91.72
64827;BME280;51265;53.972;12.286;2023-04-10T09:13:39;101413.66;;;13.08;90.56
64827;BME280;51265;53.972;12.286;2023-04-10T09:16:07;101422.97;;;13.17;91.43
64827;BME280;51265;53.972;12.286;2023-04-10T09:21:12;101369.81;;;13.20;88.56
64827;BME280;51265;53.972;12.286;2023-04-10T09:23:41;101372.03;;;13.23;88.47
64827;BME280;51265;53.972;12.286;2023-04-10T09:26:28;101364.69;;;13.32;87.61
64827;BME280;51265;53.972;12.286;2023-04-10T09:29:06;101369.09;;;13.52;87.76
64827;BME280;51265;53.972;12.286;2023-04-10T09:31:37;101347.63;;;13.44;87.32
64827;BME280;51265;53.972;12.286;2023-04-10T09:34:19;101317.38;;;13.34;85.68
64827;BME280;51265;53.972;12.286;2023-04-10T09:36:56;101333.56;;;13.40;87.15
64827;BME280;51265;53.972;12.286;2023-04-10T09:39:33;101337.16;;;13.60;87.54
64827;BME280;51265;53.972;12.286;2023-04-10T09:42:00;101330.75;;;13.78;86.91
64827;BME280;51265;53.972;12.286;2023-04-10T09:44:34;101322.50;;;13.92;86.33
64827;BME280;51265;53.972;12.286;2023-04-10T09:49:49;101301.59;;;14.27;84.67
64827;BME280;51265;53.972;12.286;2023-04-10T09:52:18;101278.59;;;14.40;83.25
64827;BME280;51265;53.972;12.286;2023-04-10T09:54:45;101254.16;;;14.70;81.87
64827;BME280;51265;53.972;12.286;2023-04-10T09:57:16;101214.59;;;14.78;79.93
64827;BME280;51265;53.972;12.286;2023-04-10T09:59:48;101188.41;;;14.84;78.60
64827;BME280;51265;53.972;12.286;2023-04-10T10:02:20;101201.63;;;14.87;79.94
64827;BME280;51265;53.972;12.286;2023-04-10T10:04:47;101211.97;;;14.95;80.75
64827;BME280;51265;53.972;12.286;2023-04-10T10:07:15;101184.13;;;15.01;79.34
64827;BME280;51265;53.972;12.286;2023-04-10T10:09:43;101187.13;;;15.35;78.96
64827;BME280;51265;53.972;12.286;2023-04-10T10:12:11;101182.16;;;15.55;78.60
64827;BME280;51265;53.972;12.286;2023-04-10T10:15:08;101117.97;;;15.48;76.16
64827;BME280;51265;53.972;12.286;2023-04-10T10:20:31;101094.75;;;15.75;75.15
64827;BME280;51265;53.972;12.286;2023-04-10T10:23:01;101062.41;;;15.87;73.76
64827;BME280;51265;53.972;12.286;2023-04-10T10:25:28;101029.41;;;15.77;72.88
64827;BME280;51265;53.972;12.286;2023-04-10T10:27:59;101029.28;;;16.17;72.06
64827;BME280;51265;53.972;12.286;2023-04-10T10:30:31;100977.13;;;16.31;69.45
64827;BME280;51265;53.972;12.286;2023-04-10T10:32:57;100956.31;;;16.46;68.42
64827;BME280;51265;53.972;12.286;2023-04-10T10:35:25;100957.00;;;16.52;69.13
64827;BME280;51265;53.972;12.286;2023-04-10T10:37:53;100960.88;;;16.68;69.01
64827;BME280;51265;53.972;12.286;2023-04-10T10:41:15;100928.38;;;16.51;68.47
64827;BME280;51265;53.972;12.286;2023-04-10T10:46:35;100917.81;;;16.27;68.92
64827;BME280;51265;53.972;12.286;2023-04-10T10:49:03;100956.84;;;16.39;70.11
64827;BME280;51265;53.972;12.286;2023-04-10T10:51:46;100887.63;;;16.47;67.59
64827;BME280;51265;53.972;12.286;2023-04-10T10:56:53;100868.44;;;17.01;65.77
64827;BME280;51265;53.972;12.286;2023-04-10T11:02:18;100833.66;;;17.57;63.45
64827;BME280;51265;53.972;12.286;2023-04-10T11:04:48;100833.31;;;17.80;63.23
64827;BME280;51265;53.972;12.286;2023-04-10T11:07:15;100773.25;;;17.70;62.36
64827;BME280;51265;53.972;12.286;2023-04-10T11:09:45;100807.53;;;18.16;62.41
64827;BME280;51265;53.972;12.286;2023-04-10T11:12:18;100764.34;;;18.47;60.58
64827;BME280;51265;53.972;12.286;2023-04-10T11:14:59;100778.31;;;18.71;60.61
64827;BME280;51265;53.972;12.286;2023-04-10T11:20:17;100696.44;;;18.67;59.18
64827;BME280;51265;53.972;12.286;2023-04-10T11:23:14;100675.44;;;18.70;58.27
64827;BME280;51265;53.972;12.286;2023-04-10T11:25:48;100670.97;;;18.81;57.84
64827;BME280;51265;53.972;12.286;2023-04-10T11:31:32;100587.22;;;18.77;55.19
64827;BME280;51265;53.972;12.286;2023-04-10T11:34:04;100616.78;;;19.10;55.85
64827;BME280;51265;53.972;12.286;2023-04-10T11:36:33;100609.47;;;19.33;55.32
64827;BME280;51265;53.972;12.286;2023-04-10T11:39:04;100562.47;;;19.35;54.10
64827;BME280;51265;53.972;12.286;2023-04-10T11:41:34;100521.72;;;19.34;53.69
64827;BME280;51265;53.972;12.286;2023-04-10T11:44:05;100429.34;;;19.24;50.89
64827;BME280;51265;53.972;12.286;2023-04-10T11:46:36;100375.31;;;19.16;49.47
64827;BME280;51265;53.972;12.286;2023-04-10T11:49:05;100390.56;;;19.38;49.58
64827;BME280;51265;53.972;12.286;2023-04-10T11:51:32;100391.84;;;19.40;49.86
64827;BME280;51265;53.972;12.286;2023-04-10T11:54:14;100330.59;;;19.51;48.20
64827;BME280;51265;53.972;12.286;2023-04-10T11:56:44;100301.13;;;19.15;48.00
64827;BME280;51265;53.972;12.286;2023-04-10T11:59:10;100261.13;;;18.60;48.29
64827;BME280;51265;53.972;12.286;2023-04-10T12:01:40;100244.88;;;18.30;48.29
64827;BME280;51265;53.972;12.286;2023-04-10T12:04:16;100187.69;;;18.05;47.13
64827;BME280;51265;53.972;12.286;2023-04-10T12:06:45;100261.97;;;18.60;47.88
64827;BME280;51265;53.972;12.286;2023-04-10T12:09:13;100235.41;;;18.66;47.51
64827;BME280;51265;53.972;12.286;2023-04-10T12:11:54;100246.47;;;18.63;48.15
64827;BME280;51265;53.972;12.286;2023-04-10T12:14:22;100197.16;;;18.67;47.01
64827;BME280;51265;53.972;12.286;2023-04-10T12:16:55;100165.06;;;18.57;46.12
64827;BME280;51265;53.972;12.286;2023-04-10T12:19:22;100217.34;;;18.45;48.13
64827;BME280;51265;53.972;12.286;2023-04-10T12:21:48;100186.50;;;18.37;47.22
64827;BME280;51265;53.972;12.286;2023-04-10T12:24:47;100176.06;;;18.50;46.62
64827;BME280;51265;53.972;12.286;2023-04-10T12:27:21;100155.44;;;18.55;45.90
64827;BME280;51265;53.972;12.286;2023-04-10T12:29:50;100096.06;;;18.89;43.41
64827;BME280;51265;53.972;12.286;2023-04-10T12:32:17;100123.94;;;19.09;44.23
64827;BME280;51265;53.972;12.286;2023-04-10T12:34:55;100126.00;;;19.12;44.33
64827;BME280;51265;53.972;12.286;2023-04-10T12:37:52;100111.56;;;19.29;43.93
64827;BME280;51265;53.972;12.286;2023-04-10T12:40:22;100161.03;;;19.71;44.19
64827;BME280;51265;53.972;12.286;2023-04-10T12:42:48;100191.97;;;20.05;44.73
64827;BME280;51265;53.972;12.286;2023-04-10T12:45:14;100218.72;;;20.52;44.37
64827;BME280;51265;53.972;12.286;2023-04-10T12:47:45;100208.84;;;20.58;44.51
64827;BME280;51265;53.972;12.286;2023-04-10T12:50:14;100210.94;;;20.42;44.88
64827;BME280;51265;53.972;12.286;2023-04-10T12:52:42;100140.59;;;20.39;43.07
64827;BME280;51265;53.972;12.286;2023-04-10T12:55:19;100142.03;;;20.30;43.90
64827;BME280;51265;53.972;12.286;2023-04-10T12:57:47;100078.44;;;19.97;42.74
64827;BME280;51265;53.972;12.286;2023-04-10T13:00:18;100162.66;;;20.45;43.62
64827;BME280;51265;53.972;12.286;2023-04-10T13:02:47;100145.97;;;20.25;43.93
64827;BME280;51265;53.972;12.286;2023-04-10T13:05:14;100085.47;;;19.87;43.61
64827;BME280;51265;53.972;12.286;2023-04-10T13:07:40;100070.50;;;19.53;44.06
64827;BME280;51265;53.972;12.286;2023-04-10T13:10:07;100061.44;;;19.59;43.58
64827;BME280;51265;53.972;12.286;2023-04-10T13:12:34;100044.50;;;19.49;43.19
64827;BME280;51265;53.972;12.286;2023-04-10T13:15:03;100045.63;;;19.44;43.37
64827;BME280;51265;53.972;12.286;2023-04-10T13:17:29;100032.97;;;19.27;43.87
64827;BME280;51265;53.972;12.286;2023-04-10T13:19:55;99996.06;;;18.72;44.28
64827;BME280;51265;53.972;12.286;2023-04-10T13:22:22;99998.19;;;18.79;43.93
64827;BME280;51265;53.972;12.286;2023-04-10T13:24:48;100016.03;;;18.74;44.48
64827;BME280;51265;53.972;12.286;2023-04-10T13:27:14;100082.53;;;19.11;44.65
64827;BME280;51265;53.972;12.286;2023-04-10T13:29:42;100073.09;;;19.19;44.48
64827;BME280;51265;53.972;12.286;2023-04-10T13:32:08;100078.31;;;19.44;43.90
64827;BME280;51265;53.972;12.286;2023-04-10T13:34:35;100046.00;;;19.42;43.32
64827;BME280;51265;53.972;12.286;2023-04-10T13:37:01;100017.59;;;19.37;43.43
64827;BME280;51265;53.972;12.286;2023-04-10T13:39:29;100036.53;;;19.05;44.52